x

Cape San Martin - 55nm West Nw Of Morro Bay, Ca (46028) Weather Station

7:50am - Sun 1st Feb 2015 All times are PST. -8 hours from GMT.

  • Wind
    9mph
  • Sea Temp 59°f
  • Air Temp 57°f
  • Sea Pressure 1018.7mb
  • Cape San Martin - 55nm West Nw Of Morro Bay, Ca
  • Cape San Martin - 55nm West Nw Of Morro Bay, Ca

More Historic Weather Station data

Upgrade to MSW Pro to gain access to the past 30 days of data for over 8000 Wavebouys and Weather Stations around the globe.

Join Pro

Comparision Forecast

View Surf forecast
   
Sun 02/01 7:50am  -   -   -  9
mph
1018.7mb 59f 57f
6:50am  -   -   -  9 11 mph 1018.3mb 59f 57f
5:50am  -   -   -  13 16 mph 1018.3mb 59f 56f
4:50am  -   -   -  11 13 mph 1018.1mb 59f 56f
3:50am 6ft 13s 7s 9 11 mph 1018.1mb 59f 56f
2:50am  -   -   -  7 9 mph 1017.8mb 59f 57f
1:50am 6.5ft 13s 7s 7 9 mph 1017.9mb 59f 57f
12:50am 6.5ft 14s 7s 11 13 mph 1017.8mb 59f 58f
Sat 01/31 11:50pm  -   -   -  13 16 mph 1017.8mb 59f 58f
10:50pm  -   -   -  11 13 mph 1017.4mb 59f 58f
9:50pm  -   -   -  11
mph
1016.9mb 59f 58f
8:50pm  -   -   -  11 13 mph 1016.4mb 59f 58f
7:50pm  -   -   -  9 13 mph 1015.8mb 59f 59f
6:50pm  -   -   -  9 11 mph 1015.4mb 59f 59f
5:50pm  -   -   -  9 11 mph 1014.9mb 59f 59f
4:50pm  -   -   -  11 13 mph 1014.4mb 60f 59f
3:50pm  -   -   -  9 11 mph 1014.3mb 60f 60f
2:50pm  -   -   -  11 13 mph 1014.4mb 60f 60f
1:50pm  -   -   -  4 7 mph 1013.8mb 60f 60f
12:50pm 9ft 14s 8s 2 4 mph 1014.3mb 60f 59f
11:50am  -   -   -  2 4 mph 1014.8mb 59f 58f
10:50am 9ft 9s 8s 2 7 mph 1014.7mb 59f 57f
9:50am  -   -   -  11 13 mph 1013.6mb 59f 57f
8:50am 8.5ft 9s 7s 18 20 mph 1012.8mb 59f 58f
7:50am  -   -   -  13 18 mph 1012.3mb 59f 58f
6:50am  -   -   -  13 16 mph 1011.9mb 59f 58f
5:50am  -   -   -  16 18 mph 1011.2mb 59f 58f
4:50am 9.5ft 15s 7s 18 20 mph 1011.1mb 59f 57f
3:50am  -   -   -  20
mph
- - 57f
2:50am  -   -   -  22
mph
1011mb - 57f
1:50am  -   -   -  25 29 mph 1011.3mb 59f 57f
12:50am  -   -   -  25 29 mph 1011.3mb 59f 57f
Fri 01/30 11:50pm  -   -   -  25
mph
- - 57f
10:50pm 8.5ft 8s 6s 20 25 mph 1012mb 59f 57f
9:50pm  -   -   -  25 29 mph 1012mb 59f 56f
8:50pm  -   -   -  25 29 mph 1012.5mb 59f 57f
7:50pm 9ft 15s 7s 22 27 mph 1012.5mb 59f 57f
6:50pm  -   -   -  25 29 mph 1012.4mb 59f 57f
5:50pm  -   -   -  27 31 mph 1011.8mb 59f 57f
4:50pm  -   -   -  20 25 mph 1012.1mb 59f 57f
3:50pm  -   -   -  22 27 mph 1012.3mb 59f 57f
2:50pm  -   -   -  22 27 mph 1012.6mb 59f 57f
1:50pm  -   -   -  22 27 mph 1012.7mb 59f 57f
12:50pm  -   -   -  20 25 mph 1013.4mb 59f 57f
11:50am  -   -   -  22 27 mph 1014.1mb 59f 57f
10:50am  -   -   -  20 27 mph 1015mb 59f 57f
9:50am  -   -   -  20 25 mph 1014.9mb 59f 57f
8:50am  -   -   -  22 27 mph 1014.8mb 59f 57f
7:50am  -   -   -  22 29 mph 1014.7mb 59f 57f
6:50am  -   -   -  22 29 mph 1014.9mb 59f 57f
5:50am  -   -   -  25 29 mph 1014.7mb 59f 57f
4:50am  -   -   -  27 31 mph 1014.7mb 59f 57f
3:50am  -   -   -  22 29 mph 1015.3mb 59f 57f
2:50am  -   -   -  22 27 mph 1015.6mb 59f 57f
1:50am  -   -   -  20
mph
1015.9mb 59f 57f
12:50am  -   -   -  20 25 mph 1016.2mb 59f 58f
Thu 01/29 11:50pm  -   -   -  20 25 mph 1016.7mb 59f 58f
10:50pm  -   -   -  20 22 mph 1016.6mb 59f 58f
9:50pm  -   -   -  18 22 mph 1016.7mb 59f 58f
8:50pm  -   -   -  18 22 mph 1016.8mb 59f 58f
7:50pm  -   -   -  22 27 mph 1016.9mb 59f 58f
6:50pm  -   -   -  20 25 mph 1016.7mb 59f 58f
5:50pm  -   -   -  20 25 mph 1016.5mb 59f 58f
4:50pm  -   -   -  20 25 mph 1016.4mb 60f 59f
3:50pm  -   -   -  18 20 mph 1016.5mb 60f 59f
2:50pm  -   -   -  16 20 mph 1016.4mb 59f 59f
1:50pm  -   -   -  18 20 mph 1016.6mb 59f 59f
12:50pm 6.5ft 12s 7s 16 20 mph 1017.3mb 59f 58f
11:50am  -   -   -  16 18 mph 1018.5mb 59f 58f
10:50am  -   -   -  13 16 mph 1019.1mb 59f 58f
9:50am  -   -   -  13 16 mph 1019.2mb 59f 58f
8:50am  -   -   -  16 18 mph 1018.9mb 59f 58f
7:50am  -   -   -  16 18 mph 1018.5mb 59f 58f
6:50am  -   -   -  18 20 mph 1018.2mb 59f 58f
5:50am 6ft 19s 7s 18 20 mph 1017.9mb 59f 58f
4:50am 5.5ft 11s 6s 16 18 mph 1018.1mb 59f 58f
3:50am  -   -   -  16 18 mph 1018.5mb 59f 58f
2:50am  -   -   -  18 20 mph 1018.8mb 59f 58f
1:50am  -   -   -  16 20 mph 1019.2mb 59f 58f
12:50am  -   -   -  11 13 mph 1019.5mb 59f 59f
Wed 01/28 11:50pm  -   -   -  11 16 mph 1020.1mb 59f 59f
10:50pm  -   -   -  13 16 mph 1020.1mb 59f 59f
9:50pm 5.5ft 13s 8s 11 13 mph 1020.3mb 59f 59f
8:50pm  -   -   -  7 9 mph 1020.3mb 59f 59f
7:50pm  -   -   -  9 11 mph 1020mb 59f 59f
6:50pm  -   -   -  9 11 mph 1019.9mb 60f 60f
5:50pm  -   -   -  9 11 mph 1020.1mb 60f 60f